sensor_id;sensor_type;location;lat;lon;timestamp;P1;durP1;ratioP1;P2;durP2;ratioP2
16029;SDS011;34770;49.272;11.070;2024-03-02T00:01:07;45.67;;;28.42;;
16029;SDS011;34770;49.272;11.070;2024-03-02T00:03:34;50.78;;;32.55;;
16029;SDS011;34770;49.272;11.070;2024-03-02T00:06:02;50.03;;;31.38;;
16029;SDS011;34770;49.272;11.070;2024-03-02T00:08:27;49.10;;;30.23;;
16029;SDS011;34770;49.272;11.070;2024-03-02T00:10:58;50.80;;;29.95;;
16029;SDS011;34770;49.272;11.070;2024-03-02T00:13:24;45.72;;;29.35;;
16029;SDS011;34770;49.272;11.070;2024-03-02T00:15:54;43.25;;;27.92;;
16029;SDS011;34770;49.272;11.070;2024-03-02T00:18:30;38.47;;;25.73;;
16029;SDS011;34770;49.272;11.070;2024-03-02T00:20:59;43.35;;;28.10;;
16029;SDS011;34770;49.272;11.070;2024-03-02T00:23:28;40.38;;;28.05;;
16029;SDS011;34770;49.272;11.070;2024-03-02T00:25:55;38.83;;;25.48;;
16029;SDS011;34770;49.272;11.070;2024-03-02T00:28:21;43.08;;;27.35;;
16029;SDS011;34770;49.272;11.070;2024-03-02T00:33:19;46.47;;;29.27;;
16029;SDS011;34770;49.272;11.070;2024-03-02T00:35:46;44.15;;;28.52;;
16029;SDS011;34770;49.272;11.070;2024-03-02T00:38:11;37.55;;;26.77;;
16029;SDS011;34770;49.272;11.070;2024-03-02T00:40:39;44.35;;;27.63;;
16029;SDS011;34770;49.272;11.070;2024-03-02T00:43:05;46.80;;;26.83;;
16029;SDS011;34770;49.272;11.070;2024-03-02T00:45:30;44.47;;;27.35;;
16029;SDS011;34770;49.272;11.070;2024-03-02T00:47:56;40.92;;;26.35;;
16029;SDS011;34770;49.272;11.070;2024-03-02T00:50:22;45.45;;;26.85;;
16029;SDS011;34770;49.272;11.070;2024-03-02T00:52:47;43.78;;;28.08;;
16029;SDS011;34770;49.272;11.070;2024-03-02T00:55:13;43.63;;;26.05;;
16029;SDS011;34770;49.272;11.070;2024-03-02T00:57:39;49.35;;;29.45;;
16029;SDS011;34770;49.272;11.070;2024-03-02T01:00:05;51.10;;;29.08;;
16029;SDS011;34770;49.272;11.070;2024-03-02T01:02:34;45.88;;;29.50;;
16029;SDS011;34770;49.272;11.070;2024-03-02T01:05:00;46.88;;;27.25;;
16029;SDS011;34770;49.272;11.070;2024-03-02T01:07:25;36.58;;;24.67;;
16029;SDS011;34770;49.272;11.070;2024-03-02T01:09:51;42.10;;;26.85;;
16029;SDS011;34770;49.272;11.070;2024-03-02T01:12:17;39.13;;;26.25;;
16029;SDS011;34770;49.272;11.070;2024-03-02T01:14:42;38.63;;;24.92;;
16029;SDS011;34770;49.272;11.070;2024-03-02T01:17:07;46.95;;;27.60;;
16029;SDS011;34770;49.272;11.070;2024-03-02T01:19:33;49.05;;;29.13;;
16029;SDS011;34770;49.272;11.070;2024-03-02T01:21:58;48.38;;;28.13;;
16029;SDS011;34770;49.272;11.070;2024-03-02T01:24:24;49.53;;;28.83;;
16029;SDS011;34770;49.272;11.070;2024-03-02T01:26:49;52.33;;;29.00;;
16029;SDS011;34770;49.272;11.070;2024-03-02T01:29:15;44.40;;;25.85;;
16029;SDS011;34770;49.272;11.070;2024-03-02T01:31:41;35.22;;;24.17;;
16029;SDS011;34770;49.272;11.070;2024-03-02T01:34:07;38.95;;;25.95;;
16029;SDS011;34770;49.272;11.070;2024-03-02T01:36:33;42.92;;;26.15;;
16029;SDS011;34770;49.272;11.070;2024-03-02T01:38:58;43.97;;;28.17;;
16029;SDS011;34770;49.272;11.070;2024-03-02T01:41:24;46.78;;;27.67;;
16029;SDS011;34770;49.272;11.070;2024-03-02T01:43:49;38.65;;;26.63;;
16029;SDS011;34770;49.272;11.070;2024-03-02T01:46:15;39.90;;;25.88;;
16029;SDS011;34770;49.272;11.070;2024-03-02T01:48:40;42.85;;;26.48;;
16029;SDS011;34770;49.272;11.070;2024-03-02T01:51:06;38.63;;;27.65;;
16029;SDS011;34770;49.272;11.070;2024-03-02T01:53:32;35.63;;;24.95;;
16029;SDS011;34770;49.272;11.070;2024-03-02T01:55:57;41.13;;;26.88;;
16029;SDS011;34770;49.272;11.070;2024-03-02T01:58:23;36.63;;;24.92;;
16029;SDS011;34770;49.272;11.070;2024-03-02T02:00:48;41.60;;;26.23;;
16029;SDS011;34770;49.272;11.070;2024-03-02T02:03:15;40.65;;;26.17;;
16029;SDS011;34770;49.272;11.070;2024-03-02T02:05:42;40.95;;;25.38;;
16029;SDS011;34770;49.272;11.070;2024-03-02T02:08:07;36.55;;;24.20;;
16029;SDS011;34770;49.272;11.070;2024-03-02T02:10:33;38.95;;;26.00;;
16029;SDS011;34770;49.272;11.070;2024-03-02T02:12:58;40.13;;;25.50;;
16029;SDS011;34770;49.272;11.070;2024-03-02T02:15:24;40.78;;;23.92;;
16029;SDS011;34770;49.272;11.070;2024-03-02T02:17:54;40.65;;;26.05;;
16029;SDS011;34770;49.272;11.070;2024-03-02T02:20:20;38.50;;;23.83;;
16029;SDS011;34770;49.272;11.070;2024-03-02T02:22:59;37.75;;;24.80;;
16029;SDS011;34770;49.272;11.070;2024-03-02T02:25:26;43.03;;;26.45;;
16029;SDS011;34770;49.272;11.070;2024-03-02T02:27:52;42.58;;;26.05;;
16029;SDS011;34770;49.272;11.070;2024-03-02T02:30:18;42.40;;;25.75;;
16029;SDS011;34770;49.272;11.070;2024-03-02T02:32:45;39.63;;;25.40;;
16029;SDS011;34770;49.272;11.070;2024-03-02T02:35:10;41.65;;;26.17;;
16029;SDS011;34770;49.272;11.070;2024-03-02T02:37:35;43.88;;;26.80;;
16029;SDS011;34770;49.272;11.070;2024-03-02T02:40:02;42.90;;;26.85;;
16029;SDS011;34770;49.272;11.070;2024-03-02T02:42:30;41.40;;;26.70;;
16029;SDS011;34770;49.272;11.070;2024-03-02T02:44:55;42.63;;;26.65;;
16029;SDS011;34770;49.272;11.070;2024-03-02T02:47:20;43.73;;;26.63;;
16029;SDS011;34770;49.272;11.070;2024-03-02T02:49:46;44.40;;;26.47;;
16029;SDS011;34770;49.272;11.070;2024-03-02T02:52:12;42.80;;;26.70;;
16029;SDS011;34770;49.272;11.070;2024-03-02T02:54:37;36.17;;;23.85;;
16029;SDS011;34770;49.272;11.070;2024-03-02T02:57:03;36.20;;;25.30;;
16029;SDS011;34770;49.272;11.070;2024-03-02T02:59:28;41.30;;;26.25;;
16029;SDS011;34770;49.272;11.070;2024-03-02T03:01:54;39.88;;;25.60;;
16029;SDS011;34770;49.272;11.070;2024-03-02T03:04:19;34.67;;;23.23;;
16029;SDS011;34770;49.272;11.070;2024-03-02T03:06:44;36.53;;;23.35;;
16029;SDS011;34770;49.272;11.070;2024-03-02T03:09:11;35.55;;;23.33;;
16029;SDS011;34770;49.272;11.070;2024-03-02T03:11:36;37.00;;;23.48;;
16029;SDS011;34770;49.272;11.070;2024-03-02T03:14:02;35.35;;;22.45;;
16029;SDS011;34770;49.272;11.070;2024-03-02T03:16:28;34.25;;;21.92;;
16029;SDS011;34770;49.272;11.070;2024-03-02T03:18:53;34.42;;;22.95;;
16029;SDS011;34770;49.272;11.070;2024-03-02T03:21:19;35.05;;;24.20;;
16029;SDS011;34770;49.272;11.070;2024-03-02T03:23:44;30.75;;;22.75;;
16029;SDS011;34770;49.272;11.070;2024-03-02T03:26:10;30.98;;;21.35;;
16029;SDS011;34770;49.272;11.070;2024-03-02T03:28:35;31.73;;;20.90;;
16029;SDS011;34770;49.272;11.070;2024-03-02T03:31:01;28.88;;;19.90;;
16029;SDS011;34770;49.272;11.070;2024-03-02T03:33:27;28.23;;;20.00;;
16029;SDS011;34770;49.272;11.070;2024-03-02T03:35:52;31.27;;;20.50;;
16029;SDS011;34770;49.272;11.070;2024-03-02T03:38:18;28.50;;;19.08;;
16029;SDS011;34770;49.272;11.070;2024-03-02T03:40:44;30.45;;;20.17;;
16029;SDS011;34770;49.272;11.070;2024-03-02T03:43:10;30.77;;;19.90;;
16029;SDS011;34770;49.272;11.070;2024-03-02T03:45:35;26.38;;;18.98;;
16029;SDS011;34770;49.272;11.070;2024-03-02T03:48:02;29.58;;;19.92;;
16029;SDS011;34770;49.272;11.070;2024-03-02T03:50:27;30.15;;;19.42;;
16029;SDS011;34770;49.272;11.070;2024-03-02T03:52:53;27.50;;;18.70;;
16029;SDS011;34770;49.272;11.070;2024-03-02T03:55:18;25.00;;;17.00;;
16029;SDS011;34770;49.272;11.070;2024-03-02T03:57:44;27.02;;;19.70;;
16029;SDS011;34770;49.272;11.070;2024-03-02T04:00:09;28.13;;;19.17;;
16029;SDS011;34770;49.272;11.070;2024-03-02T04:02:35;27.00;;;18.17;;
16029;SDS011;34770;49.272;11.070;2024-03-02T04:05:01;24.42;;;18.00;;
16029;SDS011;34770;49.272;11.070;2024-03-02T04:07:29;22.02;;;16.98;;
16029;SDS011;34770;49.272;11.070;2024-03-02T04:09:55;26.67;;;18.47;;
16029;SDS011;34770;49.272;11.070;2024-03-02T04:12:21;20.70;;;15.40;;
16029;SDS011;34770;49.272;11.070;2024-03-02T04:14:47;23.30;;;16.15;;
16029;SDS011;34770;49.272;11.070;2024-03-02T04:17:12;24.47;;;17.07;;
16029;SDS011;34770;49.272;11.070;2024-03-02T04:19:38;24.73;;;17.47;;
16029;SDS011;34770;49.272;11.070;2024-03-02T04:22:03;26.97;;;18.27;;
16029;SDS011;34770;49.272;11.070;2024-03-02T04:24:29;25.05;;;17.17;;
16029;SDS011;34770;49.272;11.070;2024-03-02T04:26:55;27.20;;;18.57;;
16029;SDS011;34770;49.272;11.070;2024-03-02T04:29:20;25.23;;;18.00;;
16029;SDS011;34770;49.272;11.070;2024-03-02T04:31:46;23.83;;;16.87;;
16029;SDS011;34770;49.272;11.070;2024-03-02T04:34:11;24.77;;;16.70;;
16029;SDS011;34770;49.272;11.070;2024-03-02T04:36:37;22.80;;;16.70;;
16029;SDS011;34770;49.272;11.070;2024-03-02T04:39:02;25.20;;;17.83;;
16029;SDS011;34770;49.272;11.070;2024-03-02T04:41:28;21.00;;;15.40;;
16029;SDS011;34770;49.272;11.070;2024-03-02T04:43:53;24.47;;;15.57;;
16029;SDS011;34770;49.272;11.070;2024-03-02T04:46:18;21.73;;;15.47;;
16029;SDS011;34770;49.272;11.070;2024-03-02T04:48:44;24.37;;;16.23;;
16029;SDS011;34770;49.272;11.070;2024-03-02T04:51:09;21.90;;;15.10;;
16029;SDS011;34770;49.272;11.070;2024-03-02T04:53:35;23.23;;;15.33;;
16029;SDS011;34770;49.272;11.070;2024-03-02T04:56:01;22.47;;;14.93;;
16029;SDS011;34770;49.272;11.070;2024-03-02T04:58:45;22.23;;;15.93;;
16029;SDS011;34770;49.272;11.070;2024-03-02T05:01:10;22.37;;;14.97;;
16029;SDS011;34770;49.272;11.070;2024-03-02T05:03:35;20.70;;;14.63;;
16029;SDS011;34770;49.272;11.070;2024-03-02T05:06:01;21.10;;;14.30;;
16029;SDS011;34770;49.272;11.070;2024-03-02T05:08:26;19.07;;;14.40;;
16029;SDS011;34770;49.272;11.070;2024-03-02T05:10:52;20.23;;;14.40;;
16029;SDS011;34770;49.272;11.070;2024-03-02T05:13:17;20.13;;;14.53;;
16029;SDS011;34770;49.272;11.070;2024-03-02T05:15:43;20.67;;;14.60;;
16029;SDS011;34770;49.272;11.070;2024-03-02T05:18:08;21.00;;;14.13;;
16029;SDS011;34770;49.272;11.070;2024-03-02T05:20:34;18.25;;;13.55;;
16029;SDS011;34770;49.272;11.070;2024-03-02T05:22:59;19.60;;;13.70;;
16029;SDS011;34770;49.272;11.070;2024-03-02T05:25:25;18.40;;;14.20;;
16029;SDS011;34770;49.272;11.070;2024-03-02T05:27:50;17.90;;;13.73;;
16029;SDS011;34770;49.272;11.070;2024-03-02T05:30:16;17.27;;;12.60;;
16029;SDS011;34770;49.272;11.070;2024-03-02T05:32:41;18.60;;;13.73;;
16029;SDS011;34770;49.272;11.070;2024-03-02T05:35:07;18.53;;;13.40;;
16029;SDS011;34770;49.272;11.070;2024-03-02T05:37:33;16.40;;;12.60;;
16029;SDS011;34770;49.272;11.070;2024-03-02T05:39:59;15.50;;;12.30;;
16029;SDS011;34770;49.272;11.070;2024-03-02T05:42:24;18.17;;;13.27;;
16029;SDS011;34770;49.272;11.070;2024-03-02T05:44:50;17.97;;;13.40;;
16029;SDS011;34770;49.272;11.070;2024-03-02T05:47:15;19.33;;;13.40;;
16029;SDS011;34770;49.272;11.070;2024-03-02T05:49:40;18.63;;;13.27;;
16029;SDS011;34770;49.272;11.070;2024-03-02T05:52:06;20.13;;;15.20;;
16029;SDS011;34770;49.272;11.070;2024-03-02T05:54:31;18.55;;;14.43;;
16029;SDS011;34770;49.272;11.070;2024-03-02T05:56:57;24.80;;;17.73;;
16029;SDS011;34770;49.272;11.070;2024-03-02T05:59:41;18.97;;;14.57;;
16029;SDS011;34770;49.272;11.070;2024-03-02T06:02:06;18.83;;;13.80;;
16029;SDS011;34770;49.272;11.070;2024-03-02T06:04:32;18.23;;;13.17;;
16029;SDS011;34770;49.272;11.070;2024-03-02T06:06:57;18.20;;;13.03;;
16029;SDS011;34770;49.272;11.070;2024-03-02T06:09:23;19.77;;;14.07;;
16029;SDS011;34770;49.272;11.070;2024-03-02T06:11:49;21.47;;;14.17;;
16029;SDS011;34770;49.272;11.070;2024-03-02T06:14:15;22.60;;;14.30;;
16029;SDS011;34770;49.272;11.070;2024-03-02T06:16:40;21.60;;;15.60;;
16029;SDS011;34770;49.272;11.070;2024-03-02T06:19:06;22.27;;;16.07;;
16029;SDS011;34770;49.272;11.070;2024-03-02T06:21:32;23.83;;;16.90;;
16029;SDS011;34770;49.272;11.070;2024-03-02T06:23:57;27.53;;;17.33;;
16029;SDS011;34770;49.272;11.070;2024-03-02T06:26:23;25.83;;;16.73;;
16029;SDS011;34770;49.272;11.070;2024-03-02T06:28:48;22.73;;;15.07;;
16029;SDS011;34770;49.272;11.070;2024-03-02T06:31:14;25.87;;;16.17;;
16029;SDS011;34770;49.272;11.070;2024-03-02T06:33:39;21.10;;;14.90;;
16029;SDS011;34770;49.272;11.070;2024-03-02T06:36:06;22.83;;;15.93;;
16029;SDS011;34770;49.272;11.070;2024-03-02T06:38:36;23.87;;;16.50;;
16029;SDS011;34770;49.272;11.070;2024-03-02T06:41:02;27.27;;;17.10;;
16029;SDS011;34770;49.272;11.070;2024-03-02T06:43:28;26.37;;;18.00;;
16029;SDS011;34770;49.272;11.070;2024-03-02T06:45:53;29.90;;;18.83;;
16029;SDS011;34770;49.272;11.070;2024-03-02T06:48:19;29.33;;;18.63;;
16029;SDS011;34770;49.272;11.070;2024-03-02T06:50:48;27.60;;;17.67;;
16029;SDS011;34770;49.272;11.070;2024-03-02T06:53:14;26.87;;;17.83;;
16029;SDS011;34770;49.272;11.070;2024-03-02T06:55:44;26.17;;;16.93;;
16029;SDS011;34770;49.272;11.070;2024-03-02T06:58:10;25.43;;;16.63;;
16029;SDS011;34770;49.272;11.070;2024-03-02T07:00:37;30.37;;;19.03;;
16029;SDS011;34770;49.272;11.070;2024-03-02T07:03:02;29.13;;;18.60;;
16029;SDS011;34770;49.272;11.070;2024-03-02T07:05:28;29.07;;;19.13;;
16029;SDS011;34770;49.272;11.070;2024-03-02T07:07:53;27.87;;;18.17;;
16029;SDS011;34770;49.272;11.070;2024-03-02T07:10:18;30.20;;;17.90;;
16029;SDS011;34770;49.272;11.070;2024-03-02T07:12:44;28.33;;;19.38;;
16029;SDS011;34770;49.272;11.070;2024-03-02T07:15:09;26.60;;;18.30;;
16029;SDS011;34770;49.272;11.070;2024-03-02T07:18:08;33.88;;;20.42;;
16029;SDS011;34770;49.272;11.070;2024-03-02T07:20:33;30.13;;;19.90;;
16029;SDS011;34770;49.272;11.070;2024-03-02T07:22:59;32.67;;;21.92;;
16029;SDS011;34770;49.272;11.070;2024-03-02T07:25:24;30.70;;;20.85;;
16029;SDS011;34770;49.272;11.070;2024-03-02T07:27:50;31.15;;;20.38;;
16029;SDS011;34770;49.272;11.070;2024-03-02T07:30:15;32.22;;;20.77;;
16029;SDS011;34770;49.272;11.070;2024-03-02T07:32:41;35.33;;;21.50;;
16029;SDS011;34770;49.272;11.070;2024-03-02T07:35:10;33.10;;;21.40;;
16029;SDS011;34770;49.272;11.070;2024-03-02T07:37:39;26.65;;;19.38;;
16029;SDS011;34770;49.272;11.070;2024-03-02T07:40:06;30.40;;;19.25;;
16029;SDS011;34770;49.272;11.070;2024-03-02T07:42:34;27.25;;;18.40;;
16029;SDS011;34770;49.272;11.070;2024-03-02T07:45:00;28.50;;;18.90;;
16029;SDS011;34770;49.272;11.070;2024-03-02T07:47:25;30.05;;;19.08;;
16029;SDS011;34770;49.272;11.070;2024-03-02T07:49:51;32.05;;;19.98;;
16029;SDS011;34770;49.272;11.070;2024-03-02T07:52:16;30.77;;;18.98;;
16029;SDS011;34770;49.272;11.070;2024-03-02T07:54:41;29.75;;;19.20;;
16029;SDS011;34770;49.272;11.070;2024-03-02T07:57:07;33.30;;;21.35;;
16029;SDS011;34770;49.272;11.070;2024-03-02T07:59:33;29.55;;;20.23;;
16029;SDS011;34770;49.272;11.070;2024-03-02T08:01:59;32.78;;;19.52;;
16029;SDS011;34770;49.272;11.070;2024-03-02T08:04:24;33.42;;;20.67;;
16029;SDS011;34770;49.272;11.070;2024-03-02T08:06:50;31.38;;;20.23;;
16029;SDS011;34770;49.272;11.070;2024-03-02T08:09:15;34.15;;;19.05;;
16029;SDS011;34770;49.272;11.070;2024-03-02T08:11:41;31.88;;;20.60;;
16029;SDS011;34770;49.272;11.070;2024-03-02T08:14:06;30.67;;;19.38;;
16029;SDS011;34770;49.272;11.070;2024-03-02T08:16:31;29.83;;;20.00;;
16029;SDS011;34770;49.272;11.070;2024-03-02T08:18:58;31.17;;;19.23;;
16029;SDS011;34770;49.272;11.070;2024-03-02T08:21:24;34.58;;;21.48;;
16029;SDS011;34770;49.272;11.070;2024-03-02T08:23:50;34.33;;;21.13;;
16029;SDS011;34770;49.272;11.070;2024-03-02T08:26:15;34.28;;;21.77;;
16029;SDS011;34770;49.272;11.070;2024-03-02T08:28:41;28.77;;;18.73;;
16029;SDS011;34770;49.272;11.070;2024-03-02T08:31:07;28.70;;;18.83;;
16029;SDS011;34770;49.272;11.070;2024-03-02T08:33:32;24.35;;;17.05;;
16029;SDS011;34770;49.272;11.070;2024-03-02T08:35:58;26.20;;;17.50;;
16029;SDS011;34770;49.272;11.070;2024-03-02T08:38:24;27.02;;;17.83;;
16029;SDS011;34770;49.272;11.070;2024-03-02T08:40:50;23.17;;;16.65;;
16029;SDS011;34770;49.272;11.070;2024-03-02T08:43:15;22.40;;;16.45;;
16029;SDS011;34770;49.272;11.070;2024-03-02T08:45:41;23.15;;;16.75;;
16029;SDS011;34770;49.272;11.070;2024-03-02T08:48:07;23.50;;;16.92;;
16029;SDS011;34770;49.272;11.070;2024-03-02T08:50:33;27.15;;;17.60;;
16029;SDS011;34770;49.272;11.070;2024-03-02T08:52:59;20.80;;;16.55;;
16029;SDS011;34770;49.272;11.070;2024-03-02T08:55:25;24.52;;;16.40;;
16029;SDS011;34770;49.272;11.070;2024-03-02T08:57:50;21.65;;;16.27;;
16029;SDS011;34770;49.272;11.070;2024-03-02T09:00:16;21.73;;;15.95;;
16029;SDS011;34770;49.272;11.070;2024-03-02T09:02:43;19.98;;;15.13;;
16029;SDS011;34770;49.272;11.070;2024-03-02T09:05:09;18.92;;;14.95;;
16029;SDS011;34770;49.272;11.070;2024-03-02T09:07:35;19.92;;;14.98;;
16029;SDS011;34770;49.272;11.070;2024-03-02T09:10:00;17.77;;;14.25;;
16029;SDS011;34770;49.272;11.070;2024-03-02T09:12:26;20.02;;;16.02;;
16029;SDS011;34770;49.272;11.070;2024-03-02T09:14:51;18.95;;;14.10;;
16029;SDS011;34770;49.272;11.070;2024-03-02T09:17:17;21.95;;;14.85;;
16029;SDS011;34770;49.272;11.070;2024-03-02T09:19:42;21.77;;;15.27;;
16029;SDS011;34770;49.272;11.070;2024-03-02T09:22:08;20.05;;;13.40;;
16029;SDS011;34770;49.272;11.070;2024-03-02T09:24:34;18.20;;;14.70;;
16029;SDS011;34770;49.272;11.070;2024-03-02T09:27:00;17.27;;;14.48;;
16029;SDS011;34770;49.272;11.070;2024-03-02T09:29:25;16.63;;;12.93;;
16029;SDS011;34770;49.272;11.070;2024-03-02T09:31:51;16.42;;;13.30;;
16029;SDS011;34770;49.272;11.070;2024-03-02T09:34:16;16.70;;;13.30;;
16029;SDS011;34770;49.272;11.070;2024-03-02T09:36:42;15.82;;;13.75;;
16029;SDS011;34770;49.272;11.070;2024-03-02T09:39:08;15.27;;;12.55;;
16029;SDS011;34770;49.272;11.070;2024-03-02T09:41:37;15.70;;;12.98;;
16029;SDS011;34770;49.272;11.070;2024-03-02T09:44:03;15.23;;;11.55;;
16029;SDS011;34770;49.272;11.070;2024-03-02T09:46:29;13.15;;;10.95;;
16029;SDS011;34770;49.272;11.070;2024-03-02T09:48:55;12.02;;;10.68;;
16029;SDS011;34770;49.272;11.070;2024-03-02T09:51:20;12.57;;;10.93;;
16029;SDS011;34770;49.272;11.070;2024-03-02T09:53:46;12.65;;;11.07;;
16029;SDS011;34770;49.272;11.070;2024-03-02T09:56:12;10.68;;;8.95;;
16029;SDS011;34770;49.272;11.070;2024-03-02T09:58:38;11.20;;;9.27;;
16029;SDS011;34770;49.272;11.070;2024-03-02T10:01:07;10.38;;;8.95;;
16029;SDS011;34770;49.272;11.070;2024-03-02T10:03:33;10.68;;;9.55;;
16029;SDS011;34770;49.272;11.070;2024-03-02T10:08:47;9.77;;;8.75;;
16029;SDS011;34770;49.272;11.070;2024-03-02T10:14:04;9.23;;;8.07;;
16029;SDS011;34770;49.272;11.070;2024-03-02T10:16:33;9.45;;;8.45;;
16029;SDS011;34770;49.272;11.070;2024-03-02T10:21:53;11.13;;;9.02;;
16029;SDS011;34770;49.272;11.070;2024-03-02T10:24:20;8.95;;;8.05;;
16029;SDS011;34770;49.272;11.070;2024-03-02T10:26:47;10.38;;;8.63;;
16029;SDS011;34770;49.272;11.070;2024-03-02T10:29:13;11.63;;;8.98;;
16029;SDS011;34770;49.272;11.070;2024-03-02T10:31:39;9.98;;;8.10;;
16029;SDS011;34770;49.272;11.070;2024-03-02T10:34:09;9.80;;;8.80;;
16029;SDS011;34770;49.272;11.070;2024-03-02T10:36:35;9.15;;;8.15;;
16029;SDS011;34770;49.272;11.070;2024-03-02T10:39:04;10.13;;;8.82;;
16029;SDS011;34770;49.272;11.070;2024-03-02T10:41:34;10.48;;;9.38;;
16029;SDS011;34770;49.272;11.070;2024-03-02T10:44:04;9.60;;;8.43;;
16029;SDS011;34770;49.272;11.070;2024-03-02T10:46:32;11.70;;;9.90;;
16029;SDS011;34770;49.272;11.070;2024-03-02T10:48:59;11.02;;;9.65;;
16029;SDS011;34770;49.272;11.070;2024-03-02T10:51:25;10.55;;;9.45;;
16029;SDS011;34770;49.272;11.070;2024-03-02T10:53:52;9.65;;;8.27;;
16029;SDS011;34770;49.272;11.070;2024-03-02T10:56:27;11.55;;;10.15;;
16029;SDS011;34770;49.272;11.070;2024-03-02T11:01:31;12.45;;;11.15;;
16029;SDS011;34770;49.272;11.070;2024-03-02T11:03:58;12.32;;;10.75;;
16029;SDS011;34770;49.272;11.070;2024-03-02T11:06:25;12.65;;;11.35;;
16029;SDS011;34770;49.272;11.070;2024-03-02T11:08:54;14.30;;;11.48;;
16029;SDS011;34770;49.272;11.070;2024-03-02T11:11:26;13.52;;;12.07;;
16029;SDS011;34770;49.272;11.070;2024-03-02T11:13:54;14.20;;;12.70;;
16029;SDS011;34770;49.272;11.070;2024-03-02T11:19:10;17.85;;;14.15;;
16029;SDS011;34770;49.272;11.070;2024-03-02T11:21:37;16.10;;;14.27;;
16029;SDS011;34770;49.272;11.070;2024-03-02T11:26:49;17.75;;;15.85;;
16029;SDS011;34770;49.272;11.070;2024-03-02T11:32:04;21.23;;;18.02;;
16029;SDS011;34770;49.272;11.070;2024-03-02T11:34:32;19.30;;;16.17;;
16029;SDS011;34770;49.272;11.070;2024-03-02T11:36:59;21.58;;;17.67;;
16029;SDS011;34770;49.272;11.070;2024-03-02T11:39:26;21.55;;;16.73;;
16029;SDS011;34770;49.272;11.070;2024-03-02T11:41:52;20.73;;;16.60;;
16029;SDS011;34770;49.272;11.070;2024-03-02T11:44:17;18.90;;;15.52;;
16029;SDS011;34770;49.272;11.070;2024-03-02T11:46:51;21.75;;;16.95;;
16029;SDS011;34770;49.272;11.070;2024-03-02T11:49:43;22.08;;;15.60;;
16029;SDS011;34770;49.272;11.070;2024-03-02T11:52:13;19.52;;;15.68;;
16029;SDS011;34770;49.272;11.070;2024-03-02T11:54:40;24.08;;;17.08;;
16029;SDS011;34770;49.272;11.070;2024-03-02T11:57:17;22.73;;;17.77;;
16029;SDS011;34770;49.272;11.070;2024-03-02T11:59:44;22.77;;;17.30;;
16029;SDS011;34770;49.272;11.070;2024-03-02T12:02:17;25.63;;;19.45;;
16029;SDS011;34770;49.272;11.070;2024-03-02T12:04:44;25.02;;;18.75;;
16029;SDS011;34770;49.272;11.070;2024-03-02T12:07:11;22.90;;;18.60;;
16029;SDS011;34770;49.272;11.070;2024-03-02T12:09:37;26.85;;;18.33;;
16029;SDS011;34770;49.272;11.070;2024-03-02T12:12:04;24.70;;;18.80;;
16029;SDS011;34770;49.272;11.070;2024-03-02T12:14:34;24.08;;;17.27;;
16029;SDS011;34770;49.272;11.070;2024-03-02T12:17:03;24.77;;;19.23;;
16029;SDS011;34770;49.272;11.070;2024-03-02T12:19:30;21.95;;;17.23;;
16029;SDS011;34770;49.272;11.070;2024-03-02T12:21:57;21.60;;;17.10;;
16029;SDS011;34770;49.272;11.070;2024-03-02T12:24:22;23.52;;;18.02;;
16029;SDS011;34770;49.272;11.070;2024-03-02T12:26:49;24.58;;;18.10;;
16029;SDS011;34770;49.272;11.070;2024-03-02T12:29:16;24.42;;;17.77;;
16029;SDS011;34770;49.272;11.070;2024-03-02T12:31:43;25.20;;;18.75;;
16029;SDS011;34770;49.272;11.070;2024-03-02T12:34:15;25.38;;;18.30;;
16029;SDS011;34770;49.272;11.070;2024-03-02T12:36:42;26.60;;;18.13;;
16029;SDS011;34770;49.272;11.070;2024-03-02T12:39:08;23.55;;;18.15;;
16029;SDS011;34770;49.272;11.070;2024-03-02T12:41:37;23.15;;;17.73;;
16029;SDS011;34770;49.272;11.070;2024-03-02T12:44:04;22.80;;;17.02;;
16029;SDS011;34770;49.272;11.070;2024-03-02T12:46:30;25.42;;;18.63;;
16029;SDS011;34770;49.272;11.070;2024-03-02T12:48:56;21.13;;;16.25;;
16029;SDS011;34770;49.272;11.070;2024-03-02T12:51:22;23.98;;;18.50;;
16029;SDS011;34770;49.272;11.070;2024-03-02T12:53:54;21.45;;;17.05;;
16029;SDS011;34770;49.272;11.070;2024-03-02T12:56:21;26.92;;;19.83;;
16029;SDS011;34770;49.272;11.070;2024-03-02T12:58:47;29.05;;;20.40;;
16029;SDS011;34770;49.272;11.070;2024-03-02T13:01:14;24.75;;;18.58;;
16029;SDS011;34770;49.272;11.070;2024-03-02T13:03:42;25.38;;;17.70;;
16029;SDS011;34770;49.272;11.070;2024-03-02T13:06:08;22.38;;;18.48;;
16029;SDS011;34770;49.272;11.070;2024-03-02T13:08:33;21.85;;;18.30;;
16029;SDS011;34770;49.272;11.070;2024-03-02T13:11:00;24.52;;;18.35;;
16029;SDS011;34770;49.272;11.070;2024-03-02T13:13:26;24.67;;;18.92;;
16029;SDS011;34770;49.272;11.070;2024-03-02T13:15:55;22.17;;;18.38;;
16029;SDS011;34770;49.272;11.070;2024-03-02T13:18:21;23.35;;;18.08;;
16029;SDS011;34770;49.272;11.070;2024-03-02T13:20:47;25.35;;;18.38;;
16029;SDS011;34770;49.272;11.070;2024-03-02T13:23:12;26.17;;;19.20;;
16029;SDS011;34770;49.272;11.070;2024-03-02T13:25:38;26.48;;;19.45;;
16029;SDS011;34770;49.272;11.070;2024-03-02T13:28:03;25.70;;;19.52;;
16029;SDS011;34770;49.272;11.070;2024-03-02T13:30:29;21.80;;;17.10;;
16029;SDS011;34770;49.272;11.070;2024-03-02T13:32:55;22.80;;;17.25;;
16029;SDS011;34770;49.272;11.070;2024-03-02T13:35:20;21.52;;;17.23;;
16029;SDS011;34770;49.272;11.070;2024-03-02T13:37:46;21.85;;;16.50;;
16029;SDS011;34770;49.272;11.070;2024-03-02T13:40:12;23.40;;;18.02;;
16029;SDS011;34770;49.272;11.070;2024-03-02T13:42:42;24.13;;;17.42;;
16029;SDS011;34770;49.272;11.070;2024-03-02T13:45:08;22.77;;;17.02;;
16029;SDS011;34770;49.272;11.070;2024-03-02T13:47:33;22.40;;;17.42;;
16029;SDS011;34770;49.272;11.070;2024-03-02T13:49:59;22.77;;;17.45;;
16029;SDS011;34770;49.272;11.070;2024-03-02T13:52:24;20.67;;;17.08;;
16029;SDS011;34770;49.272;11.070;2024-03-02T13:54:51;20.13;;;17.25;;
16029;SDS011;34770;49.272;11.070;2024-03-02T13:57:17;28.77;;;18.75;;
16029;SDS011;34770;49.272;11.070;2024-03-02T13:59:44;22.48;;;17.58;;
16029;SDS011;34770;49.272;11.070;2024-03-02T14:02:12;22.73;;;17.65;;
16029;SDS011;34770;49.272;11.070;2024-03-02T14:04:37;25.02;;;16.90;;
16029;SDS011;34770;49.272;11.070;2024-03-02T14:07:04;20.08;;;16.10;;
16029;SDS011;34770;49.272;11.070;2024-03-02T14:09:32;21.98;;;16.90;;
16029;SDS011;34770;49.272;11.070;2024-03-02T14:11:58;23.02;;;16.50;;
16029;SDS011;34770;49.272;11.070;2024-03-02T14:14:25;20.15;;;15.82;;
16029;SDS011;34770;49.272;11.070;2024-03-02T14:16:52;19.02;;;15.82;;
16029;SDS011;34770;49.272;11.070;2024-03-02T14:19:18;19.58;;;15.68;;
16029;SDS011;34770;49.272;11.070;2024-03-02T14:21:43;19.65;;;14.85;;
16029;SDS011;34770;49.272;11.070;2024-03-02T14:24:09;20.48;;;15.75;;
16029;SDS011;34770;49.272;11.070;2024-03-02T14:26:35;20.10;;;15.18;;
16029;SDS011;34770;49.272;11.070;2024-03-02T14:29:04;20.95;;;15.30;;